Time;durP1;ratioP1;P1;durP2;ratioP2;P2;SDS_P1;SDS_P2;PMS_P1;PMS_P2;Temp;Humidity;BMP_temperature;BMP_pressure;BME280_temperature;BME280_humidity;BME280_pressure;Samples;Min_cycle;Max_cycle;Signal;HPM_P1;HPM_P2
2022/03/27 00:02:13;;;;;;;8.93;6.22;;;;;;;18.99;31.22;102667.47;5028353;28;20124;-76
2022/03/27 00:04:41;;;;;;;8.35;5.70;;;;;;;18.99;31.03;102674.84;5002610;28;20764;-76
2022/03/27 00:07:07;;;;;;;8.73;5.75;;;;;;;18.97;31.10;102665.81;5028564;28;20092;-76
2022/03/27 00:09:34;;;;;;;8.15;5.75;;;;;;;18.96;31.04;102669.53;5028242;28;20104;-76
2022/03/27 00:12:02;;;;;;;7.10;5.50;;;;;;;18.96;30.92;102677.78;5028268;28;20463;-77
2022/03/27 00:14:28;;;;;;;8.30;5.70;;;;;;;18.94;31.16;102668.78;5030139;28;20412;-76
2022/03/27 00:16:55;;;;;;;8.30;5.85;;;;;;;18.93;31.21;102678.03;5028914;28;20041;-76
2022/03/27 00:19:22;;;;;;;8.52;5.88;;;;;;;18.92;31.20;102679.03;5029708;28;20335;-77
2022/03/27 00:21:49;;;;;;;8.55;5.20;;;;;;;18.90;31.57;102672.75;5012958;28;20069;-76
2022/03/27 00:24:16;;;;;;;8.68;5.28;;;;;;;18.89;31.50;102680.13;5028222;28;20041;-77
2022/03/27 00:26:43;;;;;;;8.10;5.60;;;;;;;18.88;31.51;102677.47;5027948;28;20056;-76
2022/03/27 00:29:10;;;;;;;8.35;5.38;;;;;;;18.85;31.42;102672.22;5027557;28;20077;-76
2022/03/27 00:31:38;;;;;;;8.57;5.10;;;;;;;18.84;31.72;102678.72;5011211;28;20116;-76
2022/03/27 00:34:05;;;;;;;7.75;5.13;;;;;;;18.83;31.89;102671.44;5034485;28;20049;-76
2022/03/27 00:36:32;;;;;;;7.38;4.85;;;;;;;18.80;31.67;102671.66;5028270;28;20100;-76
2022/03/27 00:38:58;;;;;;;7.68;5.00;;;;;;;18.78;31.91;102676.38;5026842;28;20053;-76
2022/03/27 00:41:25;;;;;;;7.82;5.28;;;;;;;18.74;31.94;102675.75;5033041;28;20095;-76
2022/03/27 00:43:52;;;;;;;7.05;4.68;;;;;;;18.71;32.27;102669.56;5034733;28;20097;-76
2022/03/27 00:46:19;;;;;;;7.93;4.80;;;;;;;18.69;31.98;102674.31;5042448;28;20045;-76
2022/03/27 00:48:45;;;;;;;7.38;4.65;;;;;;;18.66;31.96;102674.53;5028338;28;20106;-76
2022/03/27 00:51:12;;;;;;;6.15;4.00;;;;;;;18.63;32.26;102665.50;5029053;28;20464;-76
2022/03/27 00:53:39;;;;;;;6.88;4.57;;;;;;;18.62;32.33;102668.34;5033944;28;20162;-76
2022/03/27 00:56:05;;;;;;;5.75;4.38;;;;;;;18.60;32.76;102682.25;5032165;28;20084;-76
2022/03/27 00:58:32;;;;;;;8.50;4.60;;;;;;;18.60;32.51;102684.13;5031228;28;20045;-76
2022/03/27 01:01:01;;;;;;;6.88;4.75;;;;;;;18.61;32.75;102675.72;5032014;28;20122;-76
2022/03/27 01:03:30;;;;;;;8.70;4.85;;;;;;;18.58;32.72;102675.97;5031479;28;20132;-76
2022/03/27 01:05:57;;;;;;;7.22;5.05;;;;;;;18.58;32.67;102675.97;5031985;28;20049;-76
2022/03/27 01:11:18;;;;;;;8.73;5.18;;;;;;;18.57;32.57;102667.81;5028538;28;20161;-76
2022/03/27 01:14:05;;;;;;;7.88;4.53;;;;;;;18.55;33.47;102659.63;5035858;28;20377;-76
2022/03/27 01:16:41;;;;;;;8.20;4.88;;;;;;;18.56;33.47;102655.94;5015250;28;20061;-76
2022/03/27 01:19:14;;;;;;;8.00;4.95;;;;;;;18.55;33.12;102654.13;5013491;28;20049;-76
2022/03/27 01:21:43;;;;;;;5.95;4.35;;;;;;;18.52;32.54;102657.13;5026819;28;20133;-76
2022/03/27 01:24:11;;;;;;;6.43;4.25;;;;;;;18.51;32.68;102655.38;5022575;28;20514;-76
2022/03/27 01:26:39;;;;;;;6.75;4.38;;;;;;;18.51;32.84;102655.38;5014094;28;20084;-77
2022/03/27 01:29:07;;;;;;;6.43;3.83;;;;;;;18.50;33.16;102650.84;5029873;28;20084;-76
2022/03/27 01:31:34;;;;;;;6.82;4.28;;;;;;;18.47;33.19;102656.56;5031272;28;20503;-77
2022/03/27 01:34:02;;;;;;;7.47;4.80;;;;;;;18.47;33.15;102651.06;5030340;28;20053;-77
2022/03/27 01:36:35;;;;;;;7.30;4.53;;;;;;;18.46;33.29;102643.78;5031438;28;20102;-77
2022/03/27 01:39:11;;;;;;;7.43;4.70;;;;;;;18.46;33.53;102637.41;5022107;28;20357;-77
2022/03/27 01:41:39;;;;;;;7.05;4.68;;;;;;;18.43;32.91;102641.28;5024016;28;20046;-76
2022/03/27 01:44:09;;;;;;;8.57;5.20;;;;;;;18.42;33.39;102641.38;5010743;28;20166;-77
2022/03/27 01:46:38;;;;;;;6.80;4.18;;;;;;;18.41;32.93;102640.50;5030982;28;20108;-77
2022/03/27 01:49:07;;;;;;;6.53;4.70;;;;;;;18.40;33.04;102637.84;5029694;28;20061;-77
2022/03/27 01:51:36;;;;;;;7.15;5.00;;;;;;;18.38;32.99;102642.56;5028343;28;20066;-77
2022/03/27 01:54:03;;;;;;;7.57;4.80;;;;;;;18.36;33.37;102644.59;5028359;28;20081;-77
2022/03/27 01:56:30;;;;;;;7.82;4.45;;;;;;;18.34;33.44;102630.94;5029988;28;20103;-77
2022/03/27 01:58:57;;;;;;;7.32;4.30;;;;;;;18.33;33.11;102631.03;5030539;28;20061;-77
2022/03/27 02:01:24;;;;;;;7.35;4.57;;;;;;;18.31;33.20;102628.38;5031786;28;20418;-76
2022/03/27 02:03:54;;;;;;;7.25;4.63;;;;;;;18.30;33.40;102632.13;5028595;28;20051;-77
2022/03/27 02:06:21;;;;;;;6.78;4.35;;;;;;;18.28;33.32;102636.88;5013024;28;20134;-76
2022/03/27 02:08:47;;;;;;;6.43;4.30;;;;;;;18.26;33.31;102638.84;5030531;28;20124;-77
2022/03/27 02:11:15;;;;;;;6.90;4.15;;;;;;;18.24;33.41;102638.94;5025865;28;20132;-76
2022/03/27 02:13:42;;;;;;;6.20;4.07;;;;;;;18.22;33.47;102640.91;5028396;28;20123;-76
2022/03/27 02:16:09;;;;;;;6.90;4.50;;;;;;;18.20;33.69;102644.78;5029583;28;20061;-76
2022/03/27 02:18:37;;;;;;;6.88;4.32;;;;;;;18.19;33.78;102641.16;5029515;28;20049;-77
2022/03/27 02:21:03;;;;;;;6.18;4.20;;;;;;;18.17;33.49;102640.38;5030730;28;20124;-77
2022/03/27 02:23:30;;;;;;;6.72;4.03;;;;;;;18.15;33.54;102638.72;5030946;28;20132;-76
2022/03/27 02:25:57;;;;;;;6.63;4.45;;;;;;;18.13;33.68;102636.06;5029107;28;20088;-77
2022/03/27 02:28:24;;;;;;;5.88;4.00;;;;;;;18.11;33.79;102640.81;5029341;28;20053;-76
2022/03/27 02:30:53;;;;;;;6.15;4.07;;;;;;;18.10;34.08;102638.16;5013590;28;20103;-77
2022/03/27 02:33:20;;;;;;;6.28;3.88;;;;;;;18.07;34.21;102638.38;5003942;28;20053;-77
2022/03/27 02:35:47;;;;;;;7.03;4.30;;;;;;;18.05;33.97;102638.47;5028654;28;20453;-77
2022/03/27 02:38:14;;;;;;;6.97;4.20;;;;;;;18.03;34.02;102636.84;5028912;28;20080;-77
2022/03/27 02:40:42;;;;;;;6.35;3.88;;;;;;;18.02;34.10;102641.47;5032425;28;20124;-77
2022/03/27 02:43:12;;;;;;;6.40;3.72;;;;;;;17.99;34.30;102640.78;5029630;28;20049;-76
2022/03/27 02:45:39;;;;;;;6.00;3.90;;;;;;;17.97;34.10;102643.63;5035237;28;20132;-77
2022/03/27 02:48:06;;;;;;;5.30;3.70;;;;;;;17.96;34.44;102635.47;5028501;28;20060;-76
2022/03/27 02:50:36;;;;;;;6.28;4.18;;;;;;;17.94;34.30;102632.00;5020279;28;20041;-76
2022/03/27 02:53:03;;;;;;;6.10;4.03;;;;;;;17.91;34.27;102624.81;5031088;28;20152;-77
2022/03/27 02:55:30;;;;;;;5.70;3.63;;;;;;;17.88;34.34;102628.66;5010433;28;20045;-77
2022/03/27 02:57:57;;;;;;;6.68;4.07;;;;;;;17.87;34.62;102632.38;5031012;28;20452;-77
2022/03/27 03:00:25;;;;;;;6.25;4.05;;;;;;;17.86;34.87;102627.03;5028657;28;20046;-77
2022/03/27 03:02:53;;;;;;;7.80;4.28;;;;;;;17.82;34.65;102620.84;5012886;28;20075;-77
2022/03/27 03:05:21;;;;;;;6.18;4.07;;;;;;;17.82;34.58;102618.09;5008306;28;20448;-77
2022/03/27 03:07:49;;;;;;;6.97;3.72;;;;;;;17.81;34.78;102632.81;5013113;28;20045;-77
2022/03/27 03:10:16;;;;;;;6.40;3.90;;;;;;;17.78;34.71;102622.06;5017833;28;20099;-77
2022/03/27 03:12:43;;;;;;;7.43;4.50;;;;;;;17.76;35.16;102631.38;5029312;28;20144;-77
2022/03/27 03:15:10;;;;;;;6.30;4.15;;;;;;;17.74;34.80;102622.38;5030974;28;20049;-77
2022/03/27 03:17:37;;;;;;;6.72;4.10;;;;;;;17.72;35.06;102627.06;5015061;28;20041;-76
2022/03/27 03:20:05;;;;;;;6.68;4.43;;;;;;;17.71;35.19;102620.69;5027617;28;20045;-77
2022/03/27 03:22:32;;;;;;;7.70;4.25;;;;;;;17.68;35.12;102622.78;5029582;28;20129;-77
2022/03/27 03:24:59;;;;;;;5.65;4.07;;;;;;;17.67;35.40;102618.28;5024436;28;20092;-77
2022/03/27 03:27:25;;;;;;;7.45;4.53;;;;;;;17.64;34.96;102627.59;5033910;28;20064;-77
2022/03/27 03:29:52;;;;;;;6.63;4.30;;;;;;;17.63;35.38;102622.22;5029154;28;20042;-77
2022/03/27 03:32:22;;;;;;;5.97;4.10;;;;;;;17.62;35.31;102625.97;5010375;28;20092;-77
2022/03/27 03:34:48;;;;;;;8.48;4.88;;;;;;;17.58;35.10;102627.13;5011377;28;20056;-77
2022/03/27 03:37:17;;;;;;;7.43;4.47;;;;;;;17.57;35.31;102622.59;5012770;28;20092;-77
2022/03/27 03:39:47;;;;;;;8.05;5.38;;;;;;;17.58;35.64;102627.13;5025243;28;20053;-77
2022/03/27 03:42:14;;;;;;;6.22;4.43;;;;;;;17.53;35.21;102627.44;5032119;28;20077;-77
2022/03/27 03:44:41;;;;;;;6.68;4.55;;;;;;;17.51;35.28;102621.16;5029207;28;20073;-77
2022/03/27 03:47:09;;;;;;;8.10;5.05;;;;;;;17.49;35.46;102607.53;5015589;28;20049;-77
2022/03/27 03:49:36;;;;;;;7.00;4.57;;;;;;;17.47;35.62;102612.25;5012188;28;20080;-76
2022/03/27 03:52:04;;;;;;;7.13;4.80;;;;;;;17.46;35.55;102610.47;5029144;28;20041;-77
2022/03/27 03:54:31;;;;;;;7.95;4.75;;;;;;;17.43;35.94;102616.19;5027862;28;20116;-76
2022/03/27 03:56:58;;;;;;;8.43;5.00;;;;;;;17.43;35.64;102620.81;5028404;28;20058;-77
2022/03/27 03:59:24;;;;;;;8.05;5.07;;;;;;;17.41;35.59;102614.53;5010073;28;20512;-76
2022/03/27 04:01:57;;;;;;;7.68;5.00;;;;;;;17.39;35.72;102617.38;5009748;28;20049;-76
2022/03/27 04:04:24;;;;;;;6.47;4.82;;;;;;;17.37;35.94;102611.13;5029335;28;20054;-77
2022/03/27 04:06:51;;;;;;;7.78;5.20;;;;;;;17.35;35.90;102613.09;5032226;28;20061;-77
2022/03/27 04:09:20;;;;;;;8.27;5.50;;;;;;;17.34;36.08;102618.69;5041967;28;20472;-76
2022/03/27 04:11:47;;;;;;;7.68;5.45;;;;;;;17.33;35.96;102619.66;5043363;28;20045;-77
2022/03/27 04:14:14;;;;;;;7.88;5.53;;;;;;;17.31;35.74;102619.75;5030828;28;20045;-77
2022/03/27 04:16:40;;;;;;;6.97;5.28;;;;;;;17.30;35.92;102615.25;5032428;28;20093;-77
2022/03/27 04:19:07;;;;;;;8.43;5.40;;;;;;;17.28;35.96;102617.25;5013099;28;20056;-76
2022/03/27 04:21:34;;;;;;;8.88;6.15;;;;;;;17.27;36.13;102623.72;5030319;28;20054;-77
2022/03/27 04:24:00;;;;;;;8.68;5.75;;;;;;;17.25;35.99;102620.19;5030019;28;20050;-76
2022/03/27 04:26:31;;;;;;;9.80;6.28;;;;;;;17.24;36.36;102623.91;5024883;28;20041;-76
2022/03/27 04:28:57;;;;;;;10.73;6.50;;;;;;;17.24;36.38;102623.00;5027344;28;20049;-76
2022/03/27 04:31:44;;;;;;;11.80;7.20;;;;;;;17.22;36.12;102619.47;5027779;28;20099;-76
2022/03/27 04:34:11;;;;;;;10.20;6.72;;;;;;;17.18;36.38;102618.81;4980822;28;20046;-76
2022/03/27 04:36:37;;;;;;;11.82;7.30;;;;;;;17.18;36.48;102623.44;4985407;28;20042;-76
2022/03/27 04:39:05;;;;;;;11.88;7.68;;;;;;;17.17;36.56;102628.03;4993708;28;20085;-76
2022/03/27 04:41:32;;;;;;;12.35;7.93;;;;;;;17.16;36.53;102625.38;4987167;28;20478;-76
2022/03/27 04:43:59;;;;;;;12.88;7.30;;;;;;;17.14;36.54;102630.97;4986567;28;20046;-76
2022/03/27 04:46:25;;;;;;;12.57;8.05;;;;;;;17.11;36.49;102633.94;4970790;28;20050;-76
2022/03/27 04:48:52;;;;;;;13.88;7.93;;;;;;;17.08;36.64;102632.28;4955521;28;20519;-76
2022/03/27 04:51:19;;;;;;;12.93;7.63;;;;;;;17.05;36.73;102637.94;4980229;28;20077;-76
2022/03/27 04:53:45;;;;;;;13.35;8.23;;;;;;;17.02;36.73;102642.78;4976502;28;20043;-76
2022/03/27 04:56:12;;;;;;;12.82;8.07;;;;;;;16.99;36.77;102643.84;4986619;28;20137;-76
2022/03/27 04:58:39;;;;;;;13.63;8.60;;;;;;;16.95;36.78;102647.78;4979029;28;20081;-77
2022/03/27 05:01:05;;;;;;;14.13;8.75;;;;;;;16.91;37.06;102648.97;4988628;28;20047;-77
2022/03/27 05:03:32;;;;;;;13.40;8.48;;;;;;;16.87;37.34;102644.66;4976515;28;20050;-77
2022/03/27 05:05:59;;;;;;;12.85;8.63;;;;;;;16.85;37.17;102651.22;4969510;28;20051;-77
2022/03/27 05:08:26;;;;;;;12.10;8.25;;;;;;;16.83;37.55;102651.31;4984439;28;20046;-76
2022/03/27 05:10:53;;;;;;;12.82;8.30;;;;;;;16.81;37.33;102652.38;4988890;28;20145;-76
2022/03/27 05:13:20;;;;;;;12.55;8.35;;;;;;;16.80;37.51;102661.63;5030368;28;20045;-77
2022/03/27 05:15:47;;;;;;;12.90;9.00;;;;;;;16.78;37.44;102664.47;5011894;28;20092;-77
2022/03/27 05:18:14;;;;;;;12.32;8.93;;;;;;;16.78;37.60;102661.72;5026362;28;20045;-76
2022/03/27 05:20:42;;;;;;;12.75;8.45;;;;;;;16.80;37.65;102665.22;5028635;28;20132;-77
2022/03/27 05:23:09;;;;;;;12.75;9.23;;;;;;;16.78;37.64;102667.22;5028939;28;20092;-77
2022/03/27 05:25:45;;;;;;;14.15;9.57;;;;;;;16.78;37.99;102658.97;5015350;28;20041;-77
2022/03/27 05:28:14;;;;;;;13.75;8.95;;;;;;;16.77;38.02;102657.22;5029111;28;20052;-76
2022/03/27 05:30:41;;;;;;;12.18;8.95;;;;;;;16.77;38.07;102665.44;5034240;28;20124;-76
2022/03/27 05:33:08;;;;;;;13.75;9.32;;;;;;;16.76;38.33;102658.19;5042797;28;20081;-76
2022/03/27 05:35:35;;;;;;;14.02;10.05;;;;;;;16.73;38.46;102663.84;5000096;28;20610;-76
2022/03/27 05:38:03;;;;;;;14.35;9.80;;;;;;;16.70;38.55;102664.06;5022152;28;20136;-76
2022/03/27 05:40:30;;;;;;;15.35;9.75;;;;;;;16.68;38.50;102661.41;5027462;28;20073;-77
2022/03/27 05:42:57;;;;;;;17.73;10.68;;;;;;;16.63;39.02;102677.31;5033009;28;20045;-76
2022/03/27 05:45:24;;;;;;;15.75;10.13;;;;;;;16.56;39.25;102674.97;5034135;28;20488;-76
2022/03/27 05:47:51;;;;;;;14.32;9.43;;;;;;;16.50;39.45;102668.03;5047992;28;20050;-76
2022/03/27 05:50:22;;;;;;;14.55;9.65;;;;;;;16.49;39.41;102666.25;5040393;28;20045;-76
2022/03/27 05:52:50;;;;;;;15.43;9.60;;;;;;;16.48;39.09;102666.34;5036963;28;20046;-76
2022/03/27 05:55:18;;;;;;;13.95;9.55;;;;;;;16.44;39.34;102665.69;5035345;28;20471;-76
2022/03/27 05:57:45;;;;;;;14.88;9.77;;;;;;;16.43;39.51;102671.25;5032808;28;20049;-76
2022/03/27 06:00:13;;;;;;;14.07;9.63;;;;;;;16.43;39.45;102674.00;5002415;28;20089;-76
2022/03/27 06:02:39;;;;;;;13.65;9.50;;;;;;;16.41;39.63;102687.81;5036049;28;20084;-77
2022/03/27 06:05:07;;;;;;;14.85;9.13;;;;;;;16.40;39.83;102686.03;5028446;28;20049;-76
2022/03/27 06:08:01;;;;;;;13.00;8.95;;;;;;;16.44;41.05;102692.22;5020079;28;20289;-76
2022/03/27 06:10:33;;;;;;;13.00;8.43;;;;;;;16.42;39.74;102694.16;5042750;28;20092;-76
2022/03/27 06:13:00;;;;;;;13.02;8.98;;;;;;;16.43;39.60;102687.72;5020928;28;20561;-75
2022/03/27 06:15:28;;;;;;;13.48;9.32;;;;;;;16.44;39.77;102693.09;5012932;28;20076;-76
2022/03/27 06:17:56;;;;;;;13.43;9.23;;;;;;;16.44;39.79;102693.09;5013164;28;20049;-76
2022/03/27 06:20:26;;;;;;;14.35;9.63;;;;;;;16.44;40.58;102694.97;5022134;28;20078;-76
2022/03/27 06:22:54;;;;;;;14.25;9.50;;;;;;;16.38;40.47;102693.50;5030355;28;20045;-77
2022/03/27 06:25:23;;;;;;;15.35;9.82;;;;;;;16.35;40.71;102700.03;5044232;28;20049;-76
2022/03/27 06:27:50;;;;;;;13.05;9.02;;;;;;;16.31;40.42;102700.31;5017294;28;20089;-76
2022/03/27 06:30:20;;;;;;;13.27;9.07;;;;;;;16.30;40.77;102702.19;5013593;28;20148;-76
2022/03/27 06:32:47;;;;;;;13.65;8.90;;;;;;;16.26;40.61;102700.59;5042304;28;20083;-75
2022/03/27 06:35:15;;;;;;;12.00;8.20;;;;;;;16.26;40.60;102700.59;5031364;28;20129;-76
2022/03/27 06:37:43;;;;;;;13.15;9.27;;;;;;;16.25;41.25;102704.31;5016985;28;20056;-76
2022/03/27 06:40:12;;;;;;;11.45;8.57;;;;;;;16.25;41.40;102703.44;5043230;28;20201;-76
2022/03/27 06:42:41;;;;;;;13.43;9.00;;;;;;;16.25;41.54;102700.69;5031909;28;20076;-76
2022/03/27 06:45:10;;;;;;;13.38;8.90;;;;;;;16.25;41.36;102703.44;5028623;28;20045;-76
2022/03/27 06:47:37;;;;;;;12.55;8.40;;;;;;;16.25;41.29;102704.31;5035035;28;20122;-76
2022/03/27 06:50:06;;;;;;;14.57;8.98;;;;;;;16.29;41.55;102705.91;5029517;28;20195;-76
2022/03/27 06:52:34;;;;;;;13.32;9.02;;;;;;;16.29;41.25;102705.03;5039878;28;20053;-76
2022/03/27 06:55:01;;;;;;;13.80;9.25;;;;;;;16.32;41.40;102699.31;5033430;28;20088;-76
2022/03/27 06:57:29;;;;;;;11.48;8.60;;;;;;;16.34;41.30;102709.22;5036680;28;20151;-75
2022/03/27 07:05:26;;;;;;;12.93;8.60;;;;;;;16.43;41.19;102705.03;5037041;28;20053;-76
2022/03/27 07:07:59;;;;;;;14.13;9.38;;;;;;;16.46;41.10;102713.09;5032548;28;20128;-76
2022/03/27 07:10:26;;;;;;;13.32;8.90;;;;;;;16.48;41.32;102711.09;5039956;28;20516;-76
2022/03/27 07:12:54;;;;;;;12.52;8.90;;;;;;;16.53;41.05;102708.97;5020287;28;20505;-76
2022/03/27 07:15:20;;;;;;;14.25;9.07;;;;;;;16.55;41.24;102715.25;5035519;28;20098;-76
2022/03/27 07:17:49;;;;;;;12.57;8.55;;;;;;;16.57;41.29;102716.03;5030498;28;20563;-76
2022/03/27 07:20:43;;;;;;;12.98;9.35;;;;;;;16.53;42.22;102711.72;5037164;28;20068;-75
2022/03/27 07:23:12;;;;;;;13.77;9.30;;;;;;;16.54;41.33;102713.50;5042354;28;20049;-76
2022/03/27 07:25:41;;;;;;;12.57;8.40;;;;;;;16.56;41.12;102713.38;5027500;28;20128;-76
2022/03/27 07:28:10;;;;;;;13.80;9.60;;;;;;;16.53;41.52;102714.47;5029360;28;20061;-76
2022/03/27 07:30:37;;;;;;;14.38;8.73;;;;;;;16.53;41.58;102711.72;5009210;28;20084;-76
2022/03/27 07:33:04;;;;;;;13.98;9.85;;;;;;;16.49;41.51;102720.22;5027701;28;20456;-76
2022/03/27 07:35:31;;;;;;;12.73;9.43;;;;;;;16.48;41.51;102715.72;5031325;28;20069;-76
2022/03/27 07:37:59;;;;;;;11.55;8.50;;;;;;;16.48;41.41;102723.94;5030333;28;20114;-76
2022/03/27 07:40:25;;;;;;;14.55;9.80;;;;;;;16.46;41.58;102728.66;5026469;28;20103;-76
2022/03/27 07:42:54;;;;;;;13.07;9.10;;;;;;;16.43;41.99;102721.50;5011163;28;20489;-75
2022/03/27 07:45:23;;;;;;;11.07;8.63;;;;;;;16.45;41.66;102726.88;5033176;28;20488;-75
2022/03/27 07:47:52;;;;;;;11.18;7.88;;;;;;;16.41;41.66;102726.19;5028255;28;20045;-75
2022/03/27 07:50:21;;;;;;;11.35;8.52;;;;;;;16.41;41.39;102719.81;5010263;28;20045;-75
2022/03/27 07:52:48;;;;;;;10.77;7.88;;;;;;;16.37;41.64;102719.13;5029361;28;20064;-76
2022/03/27 07:55:17;;;;;;;11.80;8.02;;;;;;;16.39;41.71;102719.06;5027608;28;20071;-76
2022/03/27 07:57:44;;;;;;;10.68;7.88;;;;;;;16.36;41.83;102722.84;5027577;28;20451;-75
2022/03/27 08:00:13;;;;;;;10.38;7.85;;;;;;;16.39;41.66;102717.16;5019470;28;20050;-76
2022/03/27 08:02:41;;;;;;;12.45;8.23;;;;;;;16.36;41.57;102718.25;5030198;28;20084;-76
2022/03/27 08:05:09;;;;;;;12.45;8.82;;;;;;;16.36;42.10;102721.00;5028408;28;20049;-76
2022/03/27 08:07:36;;;;;;;11.95;8.80;;;;;;;16.35;42.10;102716.47;5029150;28;20052;-76
2022/03/27 08:10:04;;;;;;;13.10;8.55;;;;;;;16.34;42.22;102714.72;5027873;28;20057;-76
2022/03/27 08:12:31;;;;;;;12.38;8.20;;;;;;;16.36;42.21;102710.03;5028478;28;20520;-76
2022/03/27 08:14:58;;;;;;;12.32;8.23;;;;;;;16.38;42.27;102715.41;5027591;28;20076;-76
2022/03/27 08:17:25;;;;;;;12.88;8.95;;;;;;;16.39;42.47;102717.16;5028365;28;20114;-76
2022/03/27 08:19:52;;;;;;;13.65;9.13;;;;;;;16.43;42.44;102718.75;5027660;28;20119;-76
2022/03/27 08:22:20;;;;;;;13.00;8.52;;;;;;;16.45;42.09;102716.81;5030801;28;20042;-76
2022/03/27 08:24:47;;;;;;;12.07;8.77;;;;;;;16.47;42.58;102709.34;5006418;28;20050;-76
2022/03/27 08:27:14;;;;;;;13.60;9.07;;;;;;;16.51;42.42;102705.44;5027867;28;20496;-75
2022/03/27 08:29:46;;;;;;;13.33;9.37;;;;;;;16.51;42.70;102708.19;5028335;28;20073;-76
2022/03/27 08:32:14;;;;;;;13.90;10.07;;;;;;;16.58;42.51;102708.69;5032785;28;20119;-76
2022/03/27 08:34:44;;;;;;;12.77;9.13;;;;;;;16.65;43.04;102719.19;5010445;28;20129;-76
2022/03/27 08:37:13;;;;;;;14.38;9.65;;;;;;;16.68;42.78;102713.53;5010042;28;20578;-76
2022/03/27 08:39:41;;;;;;;13.75;10.05;;;;;;;16.72;42.90;102706.84;5011396;28;20116;-77
2022/03/27 08:42:08;;;;;;;14.48;9.70;;;;;;;16.78;42.75;102708.34;5027868;28;20085;-77
2022/03/27 08:44:37;;;;;;;12.35;9.48;;;;;;;16.84;42.85;102707.97;5003047;28;20073;-77
2022/03/27 08:47:13;;;;;;;13.38;9.80;;;;;;;16.90;43.04;102704.81;5032186;28;20159;-78
2022/03/27 08:49:46;;;;;;;12.68;9.15;;;;;;;16.96;42.43;102703.56;5027811;28;20049;-78
2022/03/27 08:52:23;;;;;;;14.10;9.80;;;;;;;17.02;42.99;102701.28;5028816;28;20053;-77
2022/03/27 08:54:57;;;;;;;13.68;9.43;;;;;;;17.09;43.09;102699.91;5027090;28;20218;-78
2022/03/27 08:57:39;;;;;;;15.68;9.50;;;;;;;17.14;42.72;102705.09;5026490;28;20073;-77
2022/03/27 09:00:06;;;;;;;15.13;10.15;;;;;;;17.25;42.99;102698.91;5043922;28;20053;-77
2022/03/27 09:02:33;;;;;;;15.80;10.60;;;;;;;17.36;42.62;102705.47;5040924;28;20052;-77
2022/03/27 09:05:02;;;;;;;15.55;10.18;;;;;;;17.48;42.73;102698.25;5045826;28;20052;-77
2022/03/27 09:07:29;;;;;;;15.90;11.05;;;;;;;17.60;42.25;102707.56;5031904;28;20480;-76
2022/03/27 09:10:00;;;;;;;16.17;11.25;;;;;;;17.70;42.49;102711.50;5011279;28;20484;-76
2022/03/27 09:12:27;;;;;;;16.13;10.98;;;;;;;17.81;42.28;102712.50;5029799;28;20073;-76
2022/03/27 09:14:58;;;;;;;17.95;11.02;;;;;;;17.94;42.43;102711.69;5033941;28;20057;-76
2022/03/27 09:17:26;;;;;;;16.92;11.10;;;;;;;18.01;41.64;102713.91;5034249;28;20120;-75
2022/03/27 09:19:52;;;;;;;18.10;11.60;;;;;;;18.12;42.14;102708.53;5031912;28;20072;-75
2022/03/27 09:22:21;;;;;;;17.38;11.75;;;;;;;18.24;41.83;102717.81;5031927;28;20045;-74
2022/03/27 09:24:58;;;;;;;18.15;11.93;;;;;;;18.32;41.71;102709.91;5028322;28;20053;-74
2022/03/27 09:27:30;;;;;;;18.65;11.57;;;;;;;18.42;41.45;102715.66;5024458;28;20132;-76
2022/03/27 09:30:07;;;;;;;16.83;11.45;;;;;;;18.45;41.15;102713.53;5029341;28;20077;-74
2022/03/27 09:32:42;;;;;;;16.33;10.18;;;;;;;18.58;41.69;102716.34;5026745;28;20076;-74
2022/03/27 09:35:10;;;;;;;16.90;11.77;;;;;;;18.66;41.60;102715.81;5030968;28;20088;-74
2022/03/27 09:37:49;;;;;;;21.17;13.18;;;;;;;18.80;41.45;102702.81;5032186;28;20081;-74
2022/03/27 09:40:17;;;;;;;19.48;12.52;;;;;;;18.90;41.14;102698.41;5031882;28;20053;-74
2022/03/27 09:42:44;;;;;;;19.38;12.32;;;;;;;18.99;41.11;102689.47;5018580;28;20054;-75
2022/03/27 09:45:16;;;;;;;19.70;12.38;;;;;;;19.16;40.69;102698.38;5036199;28;20075;-75
2022/03/27 09:47:45;;;;;;;16.95;11.93;;;;;;;19.23;40.66;102686.78;5030613;28;20084;-75
2022/03/27 09:50:29;;;;;;;20.25;12.18;;;;;;;19.39;40.66;102697.53;5004789;28;20088;-75
2022/03/27 09:53:19;;;;;;;18.20;11.30;;;;;;;19.53;40.40;102693.75;5032995;28;20172;-74
2022/03/27 09:55:51;;;;;;;16.75;11.05;;;;;;;19.68;40.17;102693.47;5032508;28;20076;-74
2022/03/27 09:58:40;;;;;;;15.73;10.40;;;;;;;19.80;39.95;102688.91;5029459;28;20124;-76
2022/03/27 10:01:15;;;;;;;18.77;11.05;;;;;;;19.96;40.07;102691.38;5031996;28;20077;-76
2022/03/27 10:04:02;;;;;;;16.25;9.93;;;;;;;20.09;40.06;102683.91;5023749;28;20136;-78
2022/03/27 10:06:37;;;;;;;16.27;10.07;;;;;;;20.25;39.91;102689.13;5033577;28;20053;-85
2022/03/27 10:09:06;;;;;;;16.27;10.57;;;;;;;20.36;39.73;102684.53;5014773;28;20045;-75
2022/03/27 10:11:34;;;;;;;18.00;10.38;;;;;;;20.50;39.68;102681.56;5034038;28;20115;-78
2022/03/27 10:14:03;;;;;;;18.25;10.98;;;;;;;20.65;39.25;102682.22;5034413;28;20132;-76
2022/03/27 10:16:38;;;;;;;20.75;11.65;;;;;;;20.83;39.23;102682.59;5035173;28;20057;-74
2022/03/27 10:19:12;;;;;;;18.30;9.73;;;;;;;20.91;39.04;102677.34;5033418;28;20100;-78
2022/03/27 10:21:43;;;;;;;16.00;9.60;;;;;;;21.03;39.03;102672.66;5050697;28;20053;-74
2022/03/27 10:24:13;;;;;;;18.40;11.52;;;;;;;21.14;38.21;102665.28;5037144;28;20049;-75
2022/03/27 10:26:42;;;;;;;13.90;8.85;;;;;;;21.22;37.95;102670.19;5018811;28;20128;-78
2022/03/27 10:29:10;;;;;;;17.30;11.48;;;;;;;21.30;37.76;102669.53;5039730;28;20140;-85
